Historyczne dane pomiarowe

Dodano dane terminowe – wersja testowa.

Dane z okresu 1951-2019

Wersja bazy: 1.34 [2019-03-16, lista zmian], aktualizacja planowana na 2019-04-15

Dane meteo z obszaru Polski uzyskane na podstawie danych udostępnionych przez Instytut Meteorologii i Gospodarki Wodnej – Państwowy Instytut Badawczy.

 

Wybierz Datę:    

       

TemperaturaWilgotnośćWiatrCiśnienieOpadyŚniegCzas trwania zjawisk
 Stacja t tx tn tng RH VA  wxwx mslp ppp RRR   cm mm wxwxwxwxwxwxwx
1987-08-14 13.4 19.0 6.8 3.6 82.8- 7.3 3.0---- 2.2------------
1987-08-13 13.4 17.5 10.5 9.0 88.3- 6.0 3.3---- 0.0------------
1987-08-12 11.1 11.7 10.5 8.7 91.5- 8.0 12.0---- 6.3------------
1987-08-11 12.0 13.9 10.6 9.6 86.5- 7.7 8.7---- 4.6------------
1987-08-10 13.9 17.5 12.5 9.9 89.5- 8.0 1.0---- 15.8------------
1987-08-09 15.0 19.5 9.5 5.5 74.3- 4.7 4.0---- 0.0------------
1987-08-08 12.9 19.0 7.0 3.3 62.0- 0.7 3.3---- 0.0------------
1987-08-07 12.2 16.4 10.4 8.1 71.5- 5.3 11.3---- 0.0------------
1987-08-06 12.0 16.0 9.7 6.6 79.3- 7.7 7.0---- 0.2------------
1987-08-05 12.0 17.1 7.5 5.6 78.8- 5.0 8.0---- 0.1------------
1987-08-04 11.5 16.3 7.6 4.7 83.8- 6.0 4.7---- 3.1------------
1987-08-03 12.7 16.4 9.4 6.0 80.3- 6.7 3.3---- 1.1------------
1987-08-02 14.2 17.4 11.0 8.5 73.3- 5.0 6.0---- 0.0------------
1987-08-01 14.1 17.9 11.0 7.7 88.0- 8.0 5.0---- 11.2------------
1987-07-31 15.2 17.2 12.7 10.2 79.8- 7.0 3.0---- 9.3------------
1987-07-30 15.4 19.0 8.9 5.1 69.8- 6.0 2.3---- 0.0------------
1987-07-29 13.4 16.3 10.7 7.6 84.5- 6.0 2.3---- 1.1------------
1987-07-28 12.8 17.1 9.8 7.7 83.5- 7.0 5.0---- 3.5------------
1987-07-27 11.4 15.4 8.0 4.6 78.8- 6.0 5.0---- 0.3------------
1987-07-26 14.1 18.3 10.1 6.6 74.0- 5.0 3.0---- 0.0------------
1987-07-25 16.8 20.2 13.5 11.0 81.8- 5.3 3.0---- 0.8------------
1987-07-24 19.0 23.6 13.5 11.0 80.5- 4.3 3.0---- 1.3------------
1987-07-23 19.3 22.8 17.5 15.3 90.8- 6.0 1.0---- 19.8------------
1987-07-22 19.5 24.8 13.9 11.0 84.8- 8.0 1.0---- 3.7------------
1987-07-21 18.0 20.5 15.7 13.1 90.3- 7.0 1.3---- 0.0------------
1987-07-20 17.2 20.4 13.9 12.7 74.5- 8.0 5.7---- 11.1------------
1987-07-19 17.6 22.5 10.8 8.2 70.5- 2.3 5.0---- 0.0------------
1987-07-18 18.1 22.5 12.9 11.2 72.5- 3.7 6.0---- 0.0------------
1987-07-17 17.0 21.9 11.8 9.3 74.8- 4.0 5.0---- 0.0------------
1987-07-16 16.7 21.0 9.5 6.1 73.5- 3.7 2.0---- 0.0------------
1987-07-15 14.9 19.6 9.4 6.4 72.5- 4.3 2.0---- 0.0------------
1987-07-14 13.0 17.0 9.8 7.2 86.8- 5.3 4.7---- 0.2------------
1987-07-13 14.1 18.0 12.0 10.7 82.8- 7.0 6.3---- 5.7------------
1987-07-12 14.4 18.0 11.0 8.9 93.0- 8.0 4.0---- 5.2------------
1987-07-11 11.8 15.2 8.7 6.4 85.5- 7.0 5.0---- 1.1------------
1987-07-10 11.4 15.6 10.0 7.3 88.0- 6.0 7.3---- 3.5------------
1987-07-09 16.4 29.6 11.8 12.6 77.3- 7.0 3.3---- 4.2------------
1987-07-08 21.4 26.7 14.5 10.7 66.8- 3.7 3.7---- 16.2------------
1987-07-07 19.6 26.0 11.0 7.3 65.0- 1.3 3.0---- 0.0------------
1987-07-06 17.0 21.7 9.7 6.1 65.8- 1.3 2.0---- 0.0------------
1987-07-05 16.2 20.0 11.6 9.2 67.8- 2.3 4.0---- 0.0------------
1987-07-04 15.0 18.6 10.0 7.1 71.3- 4.0 3.7---- 0.0------------
1987-07-03 15.0 19.7 9.0 11.2 71.8- 3.7 3.3---- 0.0------------
1987-07-02 16.6 20.2 13.6 12.2 69.8- 2.7 4.0---- 0.0------------
1987-07-01 22.8 29.6 18.5 16.1 81.5- 4.3 4.0---- 10.4------------
1987-06-30 20.6 24.5 16.8 15.4 77.0- 4.3 1.7---- 0.0------------
1987-06-29 15.0 20.5 7.9 3.6 76.8- 5.3 5.0---- 0.1------------
1987-06-28 13.5 16.9 9.9 9.2 82.0- 4.7 3.3---- 3.1------------
1987-06-27 14.9 17.6 13.4 10.2 83.5- 7.0 3.3---- 8.6------------
1987-06-26 13.8 19.0 6.0 3.6 78.0- 8.0 3.0---- 0.0------------
1987-06-25 11.6 14.0 9.9 6.6 91.3- 7.0 1.0---- 11.9------------
1987-06-24 15.8 18.7 13.5 12.2 80.5- 6.0 3.0---- 0.5------------
1987-06-23 15.0 21.3 8.7 6.5 80.5- 4.3 2.0---- 2.4------------
1987-06-22 18.2 22.4 11.3 7.9 65.8- 2.7 1.3---- 0.0------------
1987-06-21 17.6 22.5 10.8 6.9 57.5- 5.7 2.7---- 0.0------------
1987-06-20 14.4 19.6 8.4 4.3 67.5- 4.7 5.0---- 0.0------------
1987-06-19 10.8 15.4 6.8 4.4 78.5- 7.0 6.0---- 0.0------------
1987-06-18 11.6 16.5 5.5 1.0 68.5- 4.3 3.3---- 0.3------------
1987-06-17 11.6 14.0 10.2 9.7 78.8- 7.7 5.0---- 0.3------------
1987-06-16 15.2 20.0 9.9 9.7 90.3- 8.0 5.3---- 3.9------------
509.4 ms

 

Źródłem pochodzenia danych jest Instytut Meteorologii i Gospodarki Wodnej – Państwowy Instytut Badawczy. Dane Instytutu Meteorologii i Gospodarki Wodnej – Państwowego Instytutu Badawczego zostały przetworzone.

Dane źródłowe można odnaleźć na stronie https://dane.imgw.pl